;
Station Historical Data
 
Daily Summary for January 19, 2019 Units:  English    Metric   Both
Next Day »
Daily Weekly Monthly Yearly Custom
  Current: High: Low: Average:
Temperature: 47.5 °F 49.6 °F 44.4 °F 46.6 °F
Dew Point: 44.1 °F 47.7 °F 42.0 °F 44.4 °F
Humidity: 88% 93% 88% 92%
Wind Speed: 0.0mph 5.9mph 0.0mph 1mph
Wind Gust: 0.0mph 1.8mph - -
WindCalm - - South
Pressure: 30.16 in 30.16 in 29.88 in -
Precipitation: 0.01 in      
Historical Graphs
 
 
Tabular Data for January 19, 2019
Time Temperature Dew Point Pressure Wind Wind Speed Wind Gust Humidity Rainfall Rate (Hourly)
00:04 44.8 °F 42.9 °F 29.88 in South 2.3 mph   93% 0.03 in
00:09 45.0 °F 43.1 °F 29.88 in Calm     93% 0.03 in
00:14 45.0 °F 43.1 °F 29.88 in Calm     93% 0.03 in
00:19 45.0 °F 43.1 °F 29.88 in Calm     93% 0.03 in
00:24 45.0 °F 43.1 °F 29.88 in Calm     93% 0.03 in
00:29 45.0 °F 43.1 °F 29.88 in Calm     93% 0.02 in
00:34 45.0 °F 43.1 °F 29.89 in Calm     93% 0.02 in
00:39 45.0 °F 43.1 °F 29.89 in Calm     93% 0.02 in
00:44 45.0 °F 43.1 °F 29.89 in Calm     93% 0.01 in
00:49 45.0 °F 43.1 °F 29.90 in Calm     93% 0.01 in
00:54 45.0 °F 43.1 °F 29.90 in Calm     93% 0.01 in
00:59 45.1 °F 43.2 °F 29.90 in SSE 2.3 mph   93% 0.00 in
01:04 45.1 °F 43.2 °F 29.90 in Calm     93% 0.00 in
01:09 45.1 °F 43.2 °F 29.90 in Calm     93% 0.00 in
01:14 45.3 °F 43.4 °F 29.90 in Calm     93% 0.00 in
01:19 45.7 °F 43.8 °F 29.91 in Calm     93% 0.00 in
01:24 46.0 °F 44.1 °F 29.91 in East 2.3 mph   93% 0.00 in
01:29 46.4 °F 44.5 °F 29.91 in SE 4.6 mph   93% 0.00 in
01:34 46.9 °F 45.0 °F 29.91 in South 4.6 mph   93% 0.00 in
01:39 47.5 °F 45.6 °F 29.91 in SSE 2.3 mph 1.8 mph 93% 0.00 in
01:44 47.7 °F 45.7 °F 29.91 in North 1.2 mph 1.8 mph 93% 0.00 in
01:49 47.8 °F 45.9 °F 29.92 in SSW 3.5 mph   93% 0.00 in
01:54 48.2 °F 46.3 °F 29.92 in WSW 2.3 mph   93% 0.00 in
01:59 48.6 °F 46.6 °F 29.92 in West 5.9 mph   93% 0.00 in
02:04 48.7 °F 46.8 °F 29.93 in South 3.5 mph   93% 0.00 in
02:09 48.9 °F 47.0 °F 29.93 in SE 3.5 mph 1.4 mph 93% 0.00 in
02:14 49.1 °F 47.2 °F 29.93 in Calm   1.4 mph 93% 0.00 in
02:19 48.9 °F 47.0 °F 29.94 in SSE 2.3 mph   93% 0.00 in
02:24 48.9 °F 47.0 °F 29.94 in South 4.6 mph   93% 0.00 in
02:29 48.9 °F 47.0 °F 29.94 in WSW 4.6 mph   93% 0.00 in
02:34 49.1 °F 47.2 °F 29.95 in NE 4.6 mph   93% 0.00 in
02:39 49.3 °F 47.3 °F 29.95 in SSW 4.6 mph 1.4 mph 93% 0.00 in
02:44 49.3 °F 47.3 °F 29.95 in West 2.0 mph 1.4 mph 93% 0.00 in
02:49 49.5 °F 47.5 °F 29.96 in North 3.5 mph   93% 0.01 in
02:54 49.5 °F 47.5 °F 29.96 in WNW 3.5 mph   93% 0.01 in
02:59 49.5 °F 47.5 °F 29.96 in South 2.3 mph   93% 0.01 in
03:04 49.5 °F 47.5 °F 29.97 in SW 2.0 mph   93% 0.01 in
03:09 49.5 °F 47.5 °F 29.97 in SSE 2.3 mph   93% 0.01 in
03:14 49.6 °F 47.7 °F 29.97 in Calm     93% 0.01 in
03:19 49.5 °F 47.5 °F 29.98 in Calm     93% 0.01 in
03:24 49.5 °F 47.5 °F 29.98 in Calm     93% 0.01 in
03:29 49.5 °F 47.5 °F 29.98 in SSW 1.2 mph   93% 0.01 in
03:34 49.5 °F 47.5 °F 29.99 in Calm     93% 0.01 in
03:39 49.3 °F 47.3 °F 29.99 in North 3.1 mph   93% 0.01 in
03:44 49.3 °F 47.3 °F 29.99 in SSE 1.4 mph   93% 0.01 in
03:49 49.3 °F 47.3 °F 30.00 in Calm     93% 0.00 in
03:54 49.1 °F 47.2 °F 30.00 in SSE 2.3 mph   93% 0.00 in
03:59 48.9 °F 47.0 °F 30.00 in WSW 2.3 mph   93% 0.00 in
04:04 48.9 °F 47.0 °F 30.01 in Calm     93% 0.00 in
04:09 48.9 °F 47.0 °F 30.01 in North 1.4 mph   93% 0.00 in
04:14 48.7 °F 46.8 °F 30.01 in Calm     93% 0.00 in
04:19 48.7 °F 46.8 °F 30.01 in Calm     93% 0.00 in
04:24 48.7 °F 46.8 °F 30.01 in Calm     93% 0.00 in
04:29 48.6 °F 46.6 °F 30.01 in SSW 2.3 mph   93% 0.00 in
04:34 48.6 °F 46.6 °F 30.02 in North 1.8 mph   93% 0.00 in
04:39 48.4 °F 46.4 °F 30.02 in Calm     93% 0.00 in
04:44 48.4 °F 46.4 °F 30.02 in Calm     93% 0.00 in
04:49 48.0 °F 46.1 °F 30.03 in WNW 1.8 mph   93% 0.00 in
04:54 48.0 °F 46.1 °F 30.03 in SW 2.3 mph   93% 0.00 in
04:59 47.8 °F 45.9 °F 30.03 in SW 4.6 mph   93% 0.00 in
05:04 47.7 °F 45.5 °F 30.04 in SSE 4.6 mph   92% 0.00 in
05:09 47.7 °F 45.5 °F 30.04 in Calm     92% 0.00 in
05:14 47.5 °F 45.3 °F 30.04 in Calm     92% 0.00 in
05:19 47.1 °F 44.9 °F 30.04 in Calm     92% 0.00 in
05:24 46.9 °F 44.7 °F 30.04 in Calm     92% 0.00 in
05:29 46.8 °F 44.6 °F 30.04 in Calm     92% 0.00 in
05:34 46.6 °F 44.4 °F 30.04 in WSW 2.3 mph   92% 0.00 in
05:39 46.4 °F 44.2 °F 30.04 in Calm     92% 0.00 in
05:44 46.2 °F 44.0 °F 30.04 in NNE 1.2 mph   92% 0.00 in
05:49 46.2 °F 44.0 °F 30.05 in WNW 2.3 mph   92% 0.00 in
05:54 46.0 °F 43.8 °F 30.05 in WSW 2.3 mph   92% 0.00 in
05:59 46.0 °F 43.6 °F 30.05 in Calm     91% 0.00 in
06:04 46.0 °F 43.6 °F 30.06 in West 2.3 mph   91% 0.00 in
06:09 45.9 °F 43.4 °F 30.06 in Calm     91% 0.00 in
06:14 45.9 °F 43.4 °F 30.06 in Calm     91% 0.00 in
06:19 45.7 °F 43.2 °F 30.06 in SW 2.3 mph   91% 0.00 in
06:24 45.7 °F 43.2 °F 30.06 in Calm     91% 0.00 in
06:29 45.5 °F 42.7 °F 30.06 in Calm     90% 0.00 in
06:34 45.3 °F 42.6 °F 30.07 in Calm     90% 0.00 in
06:39 45.3 °F 42.6 °F 30.07 in SW 3.5 mph   90% 0.00 in
06:44 45.3 °F 42.8 °F 30.07 in SSW 3.5 mph   91% 0.00 in
06:49 45.3 °F 42.8 °F 30.08 in Calm     91% 0.00 in
06:54 45.1 °F 42.4 °F 30.08 in SSW 1.2 mph   90% 0.00 in
06:59 45.1 °F 42.7 °F 30.08 in Calm     91% 0.00 in
07:04 45.0 °F 42.5 °F 30.08 in Calm     91% 0.00 in
07:09 45.1 °F 42.7 °F 30.08 in Calm     91% 0.00 in
07:14 45.1 °F 42.7 °F 30.08 in Calm     91% 0.00 in
07:19 45.1 °F 42.7 °F 30.09 in Calm     91% 0.00 in
07:24 45.0 °F 42.5 °F 30.09 in Calm     91% 0.00 in
07:29 45.0 °F 42.5 °F 30.09 in Calm     91% 0.00 in
07:34 45.0 °F 42.5 °F 30.09 in Calm     91% 0.00 in
07:39 44.8 °F 42.3 °F 30.09 in Calm     91% 0.00 in
07:44 44.6 °F 42.1 °F 30.09 in Calm     91% 0.00 in
07:49 44.6 °F 42.1 °F 30.10 in Calm     91% 0.00 in
07:54 44.4 °F 42.0 °F 30.10 in SW 3.1 mph   91% 0.00 in
07:59 44.6 °F 42.1 °F 30.10 in Calm     91% 0.00 in
08:04 44.6 °F 42.1 °F 30.11 in Calm     91% 0.00 in
08:09 44.6 °F 42.1 °F 30.11 in SE 1.4 mph   91% 0.00 in
08:14 44.8 °F 42.3 °F 30.11 in Calm     91% 0.00 in
08:19 44.6 °F 42.1 °F 30.11 in Calm     91% 0.00 in
08:24 44.6 °F 42.1 °F 30.11 in Calm     91% 0.00 in
08:29 44.4 °F 42.0 °F 30.11 in Calm     91% 0.00 in
08:34 44.4 °F 42.2 °F 30.12 in Calm     92% 0.00 in
08:39 44.4 °F 42.2 °F 30.12 in Calm     92% 0.00 in
08:44 44.4 °F 42.2 °F 30.12 in Calm     92% 0.00 in
08:49 44.4 °F 42.2 °F 30.13 in Calm     92% 0.00 in
08:54 44.4 °F 42.2 °F 30.13 in Calm     92% 0.00 in
08:59 44.6 °F 42.4 °F 30.13 in Calm     92% 0.00 in
09:04 44.6 °F 42.4 °F 30.13 in Calm     92% 0.00 in
09:09 44.8 °F 42.6 °F 30.13 in Calm     92% 0.00 in
09:14 45.0 °F 42.5 °F 30.13 in Calm     91% 0.00 in
09:19 45.1 °F 42.7 °F 30.14 in Calm     91% 0.00 in
09:24 45.1 °F 42.7 °F 30.14 in Calm     91% 0.00 in
09:29 45.3 °F 42.8 °F 30.14 in Calm     91% 0.00 in
09:34 45.5 °F 43.0 °F 30.15 in Calm     91% 0.00 in
09:39 45.7 °F 42.9 °F 30.15 in Calm     90% 0.00 in
09:44 45.9 °F 42.8 °F 30.15 in Calm     89% 0.00 in
09:49 46.0 °F 43.0 °F 30.15 in Calm     89% 0.00 in
09:54 46.2 °F 43.2 °F 30.15 in Calm     89% 0.00 in
09:59 46.2 °F 43.2 °F 30.15 in Calm     89% 0.00 in
10:04 46.6 °F 43.5 °F 30.15 in Calm     89% 0.00 in
10:09 46.8 °F 43.7 °F 30.15 in Calm     89% 0.00 in
10:14 46.9 °F 43.9 °F 30.15 in Calm     89% 0.00 in
10:19 47.1 °F 43.7 °F 30.16 in Calm     88% 0.00 in
10:24 47.3 °F 44.2 °F 30.16 in Calm     89% 0.00 in
10:28 47.5 °F 44.1 °F 30.16 in Calm     88% 0.00 in
Amateur Radio Station WA6MVG